sensor_id;sensor_type;location;lat;lon;timestamp;temperature;humidity
16825;DHT22;8529;48.108;-1.706;2023-06-22T00:00:06;20.80;99.90
16825;DHT22;8529;48.108;-1.706;2023-06-22T00:02:37;20.80;99.90
16825;DHT22;8529;48.108;-1.706;2023-06-22T00:05:05;20.80;99.90
16825;DHT22;8529;48.108;-1.706;2023-06-22T00:07:31;20.80;99.90
16825;DHT22;8529;48.108;-1.706;2023-06-22T00:09:58;20.80;99.90
16825;DHT22;8529;48.108;-1.706;2023-06-22T00:12:25;20.80;99.90
16825;DHT22;8529;48.108;-1.706;2023-06-22T00:14:54;20.80;99.90
16825;DHT22;8529;48.108;-1.706;2023-06-22T00:17:20;20.80;99.90
16825;DHT22;8529;48.108;-1.706;2023-06-22T00:19:47;20.80;99.90
16825;DHT22;8529;48.108;-1.706;2023-06-22T00:22:19;20.80;99.90
16825;DHT22;8529;48.108;-1.706;2023-06-22T00:24:54;20.90;99.90
16825;DHT22;8529;48.108;-1.706;2023-06-22T00:27:21;20.90;99.90
16825;DHT22;8529;48.108;-1.706;2023-06-22T00:29:48;20.80;99.90
16825;DHT22;8529;48.108;-1.706;2023-06-22T00:32:16;20.80;99.90
16825;DHT22;8529;48.108;-1.706;2023-06-22T00:34:44;20.80;99.90
16825;DHT22;8529;48.108;-1.706;2023-06-22T00:37:11;20.80;99.90
16825;DHT22;8529;48.108;-1.706;2023-06-22T00:39:38;20.80;99.90
16825;DHT22;8529;48.108;-1.706;2023-06-22T00:42:05;20.80;99.90
16825;DHT22;8529;48.108;-1.706;2023-06-22T00:44:32;20.70;99.90
16825;DHT22;8529;48.108;-1.706;2023-06-22T00:46:59;20.80;99.90
16825;DHT22;8529;48.108;-1.706;2023-06-22T00:49:28;20.70;99.90
16825;DHT22;8529;48.108;-1.706;2023-06-22T00:51:56;20.70;99.90
16825;DHT22;8529;48.108;-1.706;2023-06-22T00:54:24;20.60;99.90
16825;DHT22;8529;48.108;-1.706;2023-06-22T00:56:53;20.60;99.90
16825;DHT22;8529;48.108;-1.706;2023-06-22T00:59:22;20.50;99.90
16825;DHT22;8529;48.108;-1.706;2023-06-22T01:01:49;20.50;99.90
16825;DHT22;8529;48.108;-1.706;2023-06-22T01:04:16;20.50;99.90
16825;DHT22;8529;48.108;-1.706;2023-06-22T01:06:51;20.50;99.90
16825;DHT22;8529;48.108;-1.706;2023-06-22T01:09:25;20.50;99.90
16825;DHT22;8529;48.108;-1.706;2023-06-22T01:11:57;20.50;99.90
16825;DHT22;8529;48.108;-1.706;2023-06-22T01:14:28;20.40;99.90
16825;DHT22;8529;48.108;-1.706;2023-06-22T01:17:00;20.40;99.90
16825;DHT22;8529;48.108;-1.706;2023-06-22T01:19:35;20.50;99.90
16825;DHT22;8529;48.108;-1.706;2023-06-22T01:22:07;20.50;99.90
16825;DHT22;8529;48.108;-1.706;2023-06-22T01:24:45;20.50;99.90
16825;DHT22;8529;48.108;-1.706;2023-06-22T01:27:25;20.50;99.90
16825;DHT22;8529;48.108;-1.706;2023-06-22T01:29:57;20.50;99.90
16825;DHT22;8529;48.108;-1.706;2023-06-22T01:32:28;20.50;99.90
16825;DHT22;8529;48.108;-1.706;2023-06-22T01:34:58;20.50;99.90
16825;DHT22;8529;48.108;-1.706;2023-06-22T01:37:25;20.50;99.90
16825;DHT22;8529;48.108;-1.706;2023-06-22T01:39:54;20.50;99.90
16825;DHT22;8529;48.108;-1.706;2023-06-22T01:42:23;20.50;99.90
16825;DHT22;8529;48.108;-1.706;2023-06-22T01:44:52;20.50;99.90
16825;DHT22;8529;48.108;-1.706;2023-06-22T01:47:21;20.50;99.90
16825;DHT22;8529;48.108;-1.706;2023-06-22T01:49:48;20.50;99.90
16825;DHT22;8529;48.108;-1.706;2023-06-22T01:52:17;20.50;99.90
16825;DHT22;8529;48.108;-1.706;2023-06-22T01:54:44;20.50;99.90
16825;DHT22;8529;48.108;-1.706;2023-06-22T01:57:11;20.50;99.90
16825;DHT22;8529;48.108;-1.706;2023-06-22T01:59:43;20.50;99.90
16825;DHT22;8529;48.108;-1.706;2023-06-22T02:02:16;20.50;99.90
16825;DHT22;8529;48.108;-1.706;2023-06-22T02:04:54;20.50;99.90
16825;DHT22;8529;48.108;-1.706;2023-06-22T02:07:23;20.40;99.90
16825;DHT22;8529;48.108;-1.706;2023-06-22T02:09:55;20.40;99.90
16825;DHT22;8529;48.108;-1.706;2023-06-22T02:12:25;20.40;99.90
16825;DHT22;8529;48.108;-1.706;2023-06-22T02:14:53;20.40;99.90
16825;DHT22;8529;48.108;-1.706;2023-06-22T02:17:20;20.40;99.90
16825;DHT22;8529;48.108;-1.706;2023-06-22T02:19:49;20.40;99.90
16825;DHT22;8529;48.108;-1.706;2023-06-22T02:22:16;20.40;99.90
16825;DHT22;8529;48.108;-1.706;2023-06-22T02:24:42;20.40;99.90
16825;DHT22;8529;48.108;-1.706;2023-06-22T02:27:09;20.30;99.90
16825;DHT22;8529;48.108;-1.706;2023-06-22T02:29:36;20.30;99.90
16825;DHT22;8529;48.108;-1.706;2023-06-22T02:32:04;20.40;99.90
16825;DHT22;8529;48.108;-1.706;2023-06-22T02:34:31;20.30;99.90
16825;DHT22;8529;48.108;-1.706;2023-06-22T02:37:01;20.30;99.90
16825;DHT22;8529;48.108;-1.706;2023-06-22T02:39:28;20.30;99.90
16825;DHT22;8529;48.108;-1.706;2023-06-22T02:41:55;20.30;99.90
16825;DHT22;8529;48.108;-1.706;2023-06-22T02:44:22;20.30;99.90
16825;DHT22;8529;48.108;-1.706;2023-06-22T02:46:49;20.30;99.90
16825;DHT22;8529;48.108;-1.706;2023-06-22T02:49:16;20.30;99.90
16825;DHT22;8529;48.108;-1.706;2023-06-22T02:51:45;20.30;99.90
16825;DHT22;8529;48.108;-1.706;2023-06-22T02:54:14;20.30;99.90
16825;DHT22;8529;48.108;-1.706;2023-06-22T02:56:41;20.30;99.90
16825;DHT22;8529;48.108;-1.706;2023-06-22T02:59:09;20.30;99.90
16825;DHT22;8529;48.108;-1.706;2023-06-22T03:01:36;20.30;99.90
16825;DHT22;8529;48.108;-1.706;2023-06-22T03:04:05;20.30;99.90
16825;DHT22;8529;48.108;-1.706;2023-06-22T03:06:33;20.30;99.90
16825;DHT22;8529;48.108;-1.706;2023-06-22T03:09:02;20.20;99.90
16825;DHT22;8529;48.108;-1.706;2023-06-22T03:11:31;20.20;99.90
16825;DHT22;8529;48.108;-1.706;2023-06-22T03:13:58;20.20;99.90
16825;DHT22;8529;48.108;-1.706;2023-06-22T03:16:25;20.20;99.90
16825;DHT22;8529;48.108;-1.706;2023-06-22T03:18:52;20.20;99.90
16825;DHT22;8529;48.108;-1.706;2023-06-22T03:21:19;20.20;99.90
16825;DHT22;8529;48.108;-1.706;2023-06-22T03:23:46;20.20;99.90
16825;DHT22;8529;48.108;-1.706;2023-06-22T03:26:17;20.20;99.90
16825;DHT22;8529;48.108;-1.706;2023-06-22T03:28:46;20.20;99.90
16825;DHT22;8529;48.108;-1.706;2023-06-22T03:31:12;20.20;99.90
16825;DHT22;8529;48.108;-1.706;2023-06-22T03:33:39;20.10;99.90
16825;DHT22;8529;48.108;-1.706;2023-06-22T03:36:07;20.10;99.90
16825;DHT22;8529;48.108;-1.706;2023-06-22T03:38:34;20.10;99.90
16825;DHT22;8529;48.108;-1.706;2023-06-22T03:41:01;20.00;99.90
16825;DHT22;8529;48.108;-1.706;2023-06-22T03:43:27;20.00;99.90
16825;DHT22;8529;48.108;-1.706;2023-06-22T03:45:56;20.00;99.90
16825;DHT22;8529;48.108;-1.706;2023-06-22T03:48:23;20.00;99.90
16825;DHT22;8529;48.108;-1.706;2023-06-22T03:50:49;20.00;99.90
16825;DHT22;8529;48.108;-1.706;2023-06-22T03:53:16;19.90;99.90
16825;DHT22;8529;48.108;-1.706;2023-06-22T03:55:48;20.00;99.90
16825;DHT22;8529;48.108;-1.706;2023-06-22T03:58:16;19.90;99.90
16825;DHT22;8529;48.108;-1.706;2023-06-22T04:00:44;19.90;99.90
16825;DHT22;8529;48.108;-1.706;2023-06-22T04:03:13;19.90;99.90
16825;DHT22;8529;48.108;-1.706;2023-06-22T04:05:40;19.90;99.90
16825;DHT22;8529;48.108;-1.706;2023-06-22T04:08:07;19.80;99.90
16825;DHT22;8529;48.108;-1.706;2023-06-22T04:10:34;19.80;99.90
16825;DHT22;8529;48.108;-1.706;2023-06-22T04:13:01;19.80;99.90
16825;DHT22;8529;48.108;-1.706;2023-06-22T04:15:28;19.70;99.90
16825;DHT22;8529;48.108;-1.706;2023-06-22T04:17:56;19.70;99.90
16825;DHT22;8529;48.108;-1.706;2023-06-22T04:20:24;19.70;99.90
16825;DHT22;8529;48.108;-1.706;2023-06-22T04:22:53;19.70;99.90
16825;DHT22;8529;48.108;-1.706;2023-06-22T04:25:20;19.70;99.90
16825;DHT22;8529;48.108;-1.706;2023-06-22T04:27:48;19.70;99.90
16825;DHT22;8529;48.108;-1.706;2023-06-22T04:30:15;19.80;99.90
16825;DHT22;8529;48.108;-1.706;2023-06-22T04:32:42;19.70;99.90
16825;DHT22;8529;48.108;-1.706;2023-06-22T04:35:09;19.80;99.90
16825;DHT22;8529;48.108;-1.706;2023-06-22T04:37:38;19.70;99.90
16825;DHT22;8529;48.108;-1.706;2023-06-22T04:40:06;19.70;99.90
16825;DHT22;8529;48.108;-1.706;2023-06-22T04:42:34;19.70;99.90
16825;DHT22;8529;48.108;-1.706;2023-06-22T04:45:02;19.70;99.90
16825;DHT22;8529;48.108;-1.706;2023-06-22T04:47:30;19.70;99.90
16825;DHT22;8529;48.108;-1.706;2023-06-22T04:49:57;19.70;99.90
16825;DHT22;8529;48.108;-1.706;2023-06-22T04:52:24;19.70;99.90
16825;DHT22;8529;48.108;-1.706;2023-06-22T04:54:52;19.70;99.90
16825;DHT22;8529;48.108;-1.706;2023-06-22T04:57:21;19.70;99.90
16825;DHT22;8529;48.108;-1.706;2023-06-22T04:59:58;19.70;99.90
16825;DHT22;8529;48.108;-1.706;2023-06-22T05:02:42;19.70;99.90
16825;DHT22;8529;48.108;-1.706;2023-06-22T05:05:09;19.70;99.90
16825;DHT22;8529;48.108;-1.706;2023-06-22T05:07:39;19.70;99.90
16825;DHT22;8529;48.108;-1.706;2023-06-22T05:10:10;19.70;99.90
16825;DHT22;8529;48.108;-1.706;2023-06-22T05:12:38;19.70;99.90
16825;DHT22;8529;48.108;-1.706;2023-06-22T05:15:06;19.70;99.90
16825;DHT22;8529;48.108;-1.706;2023-06-22T05:17:33;19.70;99.90
16825;DHT22;8529;48.108;-1.706;2023-06-22T05:20:00;19.70;99.90
16825;DHT22;8529;48.108;-1.706;2023-06-22T05:22:28;19.70;99.90
16825;DHT22;8529;48.108;-1.706;2023-06-22T05:24:54;19.70;99.90
16825;DHT22;8529;48.108;-1.706;2023-06-22T05:27:23;19.70;99.90
16825;DHT22;8529;48.108;-1.706;2023-06-22T05:29:50;19.70;99.90
16825;DHT22;8529;48.108;-1.706;2023-06-22T05:32:17;19.70;99.90
16825;DHT22;8529;48.108;-1.706;2023-06-22T05:34:44;19.70;99.90
16825;DHT22;8529;48.108;-1.706;2023-06-22T05:37:11;19.80;99.90
16825;DHT22;8529;48.108;-1.706;2023-06-22T05:39:38;19.80;99.90
16825;DHT22;8529;48.108;-1.706;2023-06-22T05:42:05;19.80;99.90
16825;DHT22;8529;48.108;-1.706;2023-06-22T05:44:34;19.80;99.90
16825;DHT22;8529;48.108;-1.706;2023-06-22T05:47:01;19.80;99.90
16825;DHT22;8529;48.108;-1.706;2023-06-22T05:49:28;19.80;99.90
16825;DHT22;8529;48.108;-1.706;2023-06-22T05:51:58;19.80;99.90
16825;DHT22;8529;48.108;-1.706;2023-06-22T05:54:25;19.80;99.90
16825;DHT22;8529;48.108;-1.706;2023-06-22T05:56:52;19.90;99.90
16825;DHT22;8529;48.108;-1.706;2023-06-22T05:59:19;19.90;99.90
16825;DHT22;8529;48.108;-1.706;2023-06-22T06:01:47;20.00;99.90
16825;DHT22;8529;48.108;-1.706;2023-06-22T06:04:16;20.00;99.90
16825;DHT22;8529;48.108;-1.706;2023-06-22T06:06:43;20.00;99.90
16825;DHT22;8529;48.108;-1.706;2023-06-22T06:09:10;20.00;99.90
16825;DHT22;8529;48.108;-1.706;2023-06-22T06:11:38;20.00;99.90
16825;DHT22;8529;48.108;-1.706;2023-06-22T06:14:05;20.10;99.90
16825;DHT22;8529;48.108;-1.706;2023-06-22T06:16:32;20.20;99.90
16825;DHT22;8529;48.108;-1.706;2023-06-22T06:19:00;20.20;99.90
16825;DHT22;8529;48.108;-1.706;2023-06-22T06:21:27;20.20;99.90
16825;DHT22;8529;48.108;-1.706;2023-06-22T06:23:54;20.30;99.90
16825;DHT22;8529;48.108;-1.706;2023-06-22T06:26:21;20.20;99.90
16825;DHT22;8529;48.108;-1.706;2023-06-22T06:28:53;20.20;99.90
16825;DHT22;8529;48.108;-1.706;2023-06-22T06:31:21;20.30;99.90
16825;DHT22;8529;48.108;-1.706;2023-06-22T06:33:48;20.30;99.90
16825;DHT22;8529;48.108;-1.706;2023-06-22T06:36:17;20.30;99.90
16825;DHT22;8529;48.108;-1.706;2023-06-22T06:38:44;20.40;99.90
16825;DHT22;8529;48.108;-1.706;2023-06-22T06:41:12;20.40;99.90
16825;DHT22;8529;48.108;-1.706;2023-06-22T06:43:39;20.50;99.90
16825;DHT22;8529;48.108;-1.706;2023-06-22T06:46:08;20.60;99.90
16825;DHT22;8529;48.108;-1.706;2023-06-22T06:48:35;20.60;99.90
16825;DHT22;8529;48.108;-1.706;2023-06-22T06:51:02;20.60;99.90
16825;DHT22;8529;48.108;-1.706;2023-06-22T06:53:30;20.60;99.90
16825;DHT22;8529;48.108;-1.706;2023-06-22T06:55:57;20.70;99.90
16825;DHT22;8529;48.108;-1.706;2023-06-22T06:58:24;20.70;99.90
16825;DHT22;8529;48.108;-1.706;2023-06-22T07:00:51;20.70;99.90
16825;DHT22;8529;48.108;-1.706;2023-06-22T07:03:18;20.80;99.90
16825;DHT22;8529;48.108;-1.706;2023-06-22T07:05:45;20.80;99.90
16825;DHT22;8529;48.108;-1.706;2023-06-22T07:08:12;20.90;99.90
16825;DHT22;8529;48.108;-1.706;2023-06-22T07:10:40;20.90;99.90
16825;DHT22;8529;48.108;-1.706;2023-06-22T07:13:07;20.90;99.90
16825;DHT22;8529;48.108;-1.706;2023-06-22T07:15:34;20.90;99.90
16825;DHT22;8529;48.108;-1.706;2023-06-22T07:18:01;21.00;99.90
16825;DHT22;8529;48.108;-1.706;2023-06-22T07:20:27;21.00;99.90
16825;DHT22;8529;48.108;-1.706;2023-06-22T07:22:54;21.00;99.90
16825;DHT22;8529;48.108;-1.706;2023-06-22T07:25:21;21.10;99.90
16825;DHT22;8529;48.108;-1.706;2023-06-22T07:27:59;21.10;99.90
16825;DHT22;8529;48.108;-1.706;2023-06-22T07:30:27;21.10;99.90
16825;DHT22;8529;48.108;-1.706;2023-06-22T07:32:54;21.10;99.90
16825;DHT22;8529;48.108;-1.706;2023-06-22T07:35:21;21.20;99.90
16825;DHT22;8529;48.108;-1.706;2023-06-22T07:37:48;21.20;99.90
16825;DHT22;8529;48.108;-1.706;2023-06-22T07:40:15;21.30;99.90
16825;DHT22;8529;48.108;-1.706;2023-06-22T07:42:42;21.40;99.90
16825;DHT22;8529;48.108;-1.706;2023-06-22T07:45:10;21.40;99.90
16825;DHT22;8529;48.108;-1.706;2023-06-22T07:47:37;21.50;99.90
16825;DHT22;8529;48.108;-1.706;2023-06-22T07:50:05;21.40;99.90
16825;DHT22;8529;48.108;-1.706;2023-06-22T07:52:32;21.40;99.90
16825;DHT22;8529;48.108;-1.706;2023-06-22T07:54:59;21.40;99.90
16825;DHT22;8529;48.108;-1.706;2023-06-22T07:57:26;21.40;99.90
16825;DHT22;8529;48.108;-1.706;2023-06-22T07:59:59;21.40;99.90
16825;DHT22;8529;48.108;-1.706;2023-06-22T08:02:27;21.40;99.90
16825;DHT22;8529;48.108;-1.706;2023-06-22T08:04:54;21.50;99.90
16825;DHT22;8529;48.108;-1.706;2023-06-22T08:07:21;21.60;99.90
16825;DHT22;8529;48.108;-1.706;2023-06-22T08:09:48;21.60;99.90
16825;DHT22;8529;48.108;-1.706;2023-06-22T08:12:16;21.60;99.90
16825;DHT22;8529;48.108;-1.706;2023-06-22T08:14:43;21.60;99.90
16825;DHT22;8529;48.108;-1.706;2023-06-22T08:17:11;21.60;99.90
16825;DHT22;8529;48.108;-1.706;2023-06-22T08:19:40;21.60;99.90
16825;DHT22;8529;48.108;-1.706;2023-06-22T08:22:07;21.60;99.90
16825;DHT22;8529;48.108;-1.706;2023-06-22T08:24:34;21.60;99.90
16825;DHT22;8529;48.108;-1.706;2023-06-22T08:27:01;21.60;99.90
16825;DHT22;8529;48.108;-1.706;2023-06-22T08:29:28;21.70;99.90
16825;DHT22;8529;48.108;-1.706;2023-06-22T08:31:54;21.70;99.90
16825;DHT22;8529;48.108;-1.706;2023-06-22T08:34:21;21.70;99.90
16825;DHT22;8529;48.108;-1.706;2023-06-22T08:36:50;21.80;99.90
16825;DHT22;8529;48.108;-1.706;2023-06-22T08:39:18;21.80;99.90
16825;DHT22;8529;48.108;-1.706;2023-06-22T08:41:45;21.90;99.90
16825;DHT22;8529;48.108;-1.706;2023-06-22T08:44:12;21.90;99.90
16825;DHT22;8529;48.108;-1.706;2023-06-22T08:46:39;22.00;99.90
16825;DHT22;8529;48.108;-1.706;2023-06-22T08:49:07;22.00;99.90
16825;DHT22;8529;48.108;-1.706;2023-06-22T08:51:35;22.00;99.90
16825;DHT22;8529;48.108;-1.706;2023-06-22T08:54:03;22.20;99.90
16825;DHT22;8529;48.108;-1.706;2023-06-22T08:56:30;22.20;99.90
16825;DHT22;8529;48.108;-1.706;2023-06-22T08:58:57;22.20;99.90
16825;DHT22;8529;48.108;-1.706;2023-06-22T09:01:24;22.20;99.90
16825;DHT22;8529;48.108;-1.706;2023-06-22T09:03:51;22.30;99.90
16825;DHT22;8529;48.108;-1.706;2023-06-22T09:06:23;22.30;99.90
16825;DHT22;8529;48.108;-1.706;2023-06-22T09:08:50;22.30;99.90
16825;DHT22;8529;48.108;-1.706;2023-06-22T09:11:18;22.30;99.90
16825;DHT22;8529;48.108;-1.706;2023-06-22T09:13:45;22.30;99.90
16825;DHT22;8529;48.108;-1.706;2023-06-22T09:16:12;22.30;99.90
16825;DHT22;8529;48.108;-1.706;2023-06-22T09:18:39;22.40;99.90
16825;DHT22;8529;48.108;-1.706;2023-06-22T09:21:06;22.50;99.90
16825;DHT22;8529;48.108;-1.706;2023-06-22T09:23:33;22.50;99.90
16825;DHT22;8529;48.108;-1.706;2023-06-22T09:26:00;22.60;99.90
16825;DHT22;8529;48.108;-1.706;2023-06-22T09:28:29;22.70;99.90
16825;DHT22;8529;48.108;-1.706;2023-06-22T09:30:56;22.90;99.90
16825;DHT22;8529;48.108;-1.706;2023-06-22T09:33:23;23.20;99.90
16825;DHT22;8529;48.108;-1.706;2023-06-22T09:35:50;23.60;99.90
16825;DHT22;8529;48.108;-1.706;2023-06-22T09:38:17;23.70;99.90
16825;DHT22;8529;48.108;-1.706;2023-06-22T09:40:44;23.80;99.90
16825;DHT22;8529;48.108;-1.706;2023-06-22T09:43:11;23.90;99.90
16825;DHT22;8529;48.108;-1.706;2023-06-22T09:45:40;23.90;99.90
16825;DHT22;8529;48.108;-1.706;2023-06-22T09:48:06;23.80;99.90
16825;DHT22;8529;48.108;-1.706;2023-06-22T09:50:35;23.80;99.90
16825;DHT22;8529;48.108;-1.706;2023-06-22T09:53:03;23.60;99.90
16825;DHT22;8529;48.108;-1.706;2023-06-22T09:55:29;23.60;99.90
16825;DHT22;8529;48.108;-1.706;2023-06-22T09:57:56;23.70;99.90
16825;DHT22;8529;48.108;-1.706;2023-06-22T10:00:23;23.90;99.90
16825;DHT22;8529;48.108;-1.706;2023-06-22T10:02:53;24.10;99.90
16825;DHT22;8529;48.108;-1.706;2023-06-22T10:05:21;24.20;99.90
16825;DHT22;8529;48.108;-1.706;2023-06-22T10:07:48;24.20;99.90
16825;DHT22;8529;48.108;-1.706;2023-06-22T10:10:15;24.20;99.90
16825;DHT22;8529;48.108;-1.706;2023-06-22T10:12:44;24.20;99.90
16825;DHT22;8529;48.108;-1.706;2023-06-22T10:15:12;24.30;99.90
16825;DHT22;8529;48.108;-1.706;2023-06-22T10:17:39;24.30;99.90
16825;DHT22;8529;48.108;-1.706;2023-06-22T10:20:08;24.40;99.90
16825;DHT22;8529;48.108;-1.706;2023-06-22T10:22:38;24.50;99.90
16825;DHT22;8529;48.108;-1.706;2023-06-22T10:25:06;24.60;99.90
16825;DHT22;8529;48.108;-1.706;2023-06-22T10:27:33;24.70;99.90
16825;DHT22;8529;48.108;-1.706;2023-06-22T10:30:00;24.70;99.90
16825;DHT22;8529;48.108;-1.706;2023-06-22T10:32:27;24.70;99.90
16825;DHT22;8529;48.108;-1.706;2023-06-22T10:34:54;24.70;99.90
16825;DHT22;8529;48.108;-1.706;2023-06-22T10:37:23;24.60;99.90
16825;DHT22;8529;48.108;-1.706;2023-06-22T10:39:50;24.50;99.90
16825;DHT22;8529;48.108;-1.706;2023-06-22T10:42:17;24.60;99.90
16825;DHT22;8529;48.108;-1.706;2023-06-22T10:44:44;24.70;99.90
16825;DHT22;8529;48.108;-1.706;2023-06-22T10:47:11;24.70;99.90
16825;DHT22;8529;48.108;-1.706;2023-06-22T10:49:38;24.80;99.90
16825;DHT22;8529;48.108;-1.706;2023-06-22T10:52:06;24.80;99.90
16825;DHT22;8529;48.108;-1.706;2023-06-22T10:54:35;24.80;99.90
16825;DHT22;8529;48.108;-1.706;2023-06-22T10:57:03;24.70;99.90
16825;DHT22;8529;48.108;-1.706;2023-06-22T10:59:30;24.80;99.90
16825;DHT22;8529;48.108;-1.706;2023-06-22T11:01:57;24.80;99.90
16825;DHT22;8529;48.108;-1.706;2023-06-22T11:04:25;24.80;99.90
16825;DHT22;8529;48.108;-1.706;2023-06-22T11:06:51;24.90;99.90
16825;DHT22;8529;48.108;-1.706;2023-06-22T11:09:19;24.80;99.90
16825;DHT22;8529;48.108;-1.706;2023-06-22T11:11:48;24.70;99.90
16825;DHT22;8529;48.108;-1.706;2023-06-22T11:14:16;24.70;99.90
16825;DHT22;8529;48.108;-1.706;2023-06-22T11:16:43;24.70;99.90
16825;DHT22;8529;48.108;-1.706;2023-06-22T11:19:09;24.60;99.90
16825;DHT22;8529;48.108;-1.706;2023-06-22T11:21:36;24.60;99.90
16825;DHT22;8529;48.108;-1.706;2023-06-22T11:24:04;24.70;99.90
16825;DHT22;8529;48.108;-1.706;2023-06-22T11:26:31;24.60;99.90
16825;DHT22;8529;48.108;-1.706;2023-06-22T11:28:59;24.60;99.90
16825;DHT22;8529;48.108;-1.706;2023-06-22T11:31:26;24.70;99.90
16825;DHT22;8529;48.108;-1.706;2023-06-22T11:33:53;24.90;99.90
16825;DHT22;8529;48.108;-1.706;2023-06-22T11:36:20;24.90;99.90
16825;DHT22;8529;48.108;-1.706;2023-06-22T11:38:47;24.80;99.90
16825;DHT22;8529;48.108;-1.706;2023-06-22T11:41:14;24.80;99.90
16825;DHT22;8529;48.108;-1.706;2023-06-22T11:43:41;24.80;99.90
16825;DHT22;8529;48.108;-1.706;2023-06-22T11:46:10;24.70;99.90
16825;DHT22;8529;48.108;-1.706;2023-06-22T11:48:37;24.80;99.90
16825;DHT22;8529;48.108;-1.706;2023-06-22T11:51:04;24.90;99.90
16825;DHT22;8529;48.108;-1.706;2023-06-22T11:53:32;24.90;99.90
16825;DHT22;8529;48.108;-1.706;2023-06-22T11:56:00;24.90;99.90
16825;DHT22;8529;48.108;-1.706;2023-06-22T11:58:27;24.80;99.90
16825;DHT22;8529;48.108;-1.706;2023-06-22T12:00:54;24.80;99.90
16825;DHT22;8529;48.108;-1.706;2023-06-22T12:03:22;24.80;99.90
16825;DHT22;8529;48.108;-1.706;2023-06-22T12:05:50;24.70;99.90
16825;DHT22;8529;48.108;-1.706;2023-06-22T12:08:17;24.70;99.90
16825;DHT22;8529;48.108;-1.706;2023-06-22T12:10:44;24.70;99.90
16825;DHT22;8529;48.108;-1.706;2023-06-22T12:13:11;24.70;99.90
16825;DHT22;8529;48.108;-1.706;2023-06-22T12:15:38;24.70;99.90
16825;DHT22;8529;48.108;-1.706;2023-06-22T12:18:05;24.90;99.90
16825;DHT22;8529;48.108;-1.706;2023-06-22T12:20:33;24.90;99.90
16825;DHT22;8529;48.108;-1.706;2023-06-22T12:23:01;25.00;99.90
16825;DHT22;8529;48.108;-1.706;2023-06-22T12:25:28;25.10;99.90
16825;DHT22;8529;48.108;-1.706;2023-06-22T12:27:54;25.20;99.90
16825;DHT22;8529;48.108;-1.706;2023-06-22T12:30:21;25.20;99.90
16825;DHT22;8529;48.108;-1.706;2023-06-22T12:32:48;25.20;99.90
16825;DHT22;8529;48.108;-1.706;2023-06-22T12:35:16;25.30;99.90
16825;DHT22;8529;48.108;-1.706;2023-06-22T12:37:45;25.20;99.90
16825;DHT22;8529;48.108;-1.706;2023-06-22T12:40:12;25.10;99.90
16825;DHT22;8529;48.108;-1.706;2023-06-22T12:42:40;25.10;99.90
16825;DHT22;8529;48.108;-1.706;2023-06-22T12:45:08;25.00;99.90
16825;DHT22;8529;48.108;-1.706;2023-06-22T12:47:35;25.00;99.90
16825;DHT22;8529;48.108;-1.706;2023-06-22T12:50:02;25.20;99.90
16825;DHT22;8529;48.108;-1.706;2023-06-22T12:52:30;25.20;99.90
16825;DHT22;8529;48.108;-1.706;2023-06-22T12:54:59;25.30;99.90
16825;DHT22;8529;48.108;-1.706;2023-06-22T12:57:26;25.20;99.90
16825;DHT22;8529;48.108;-1.706;2023-06-22T12:59:53;25.20;99.90
16825;DHT22;8529;48.108;-1.706;2023-06-22T13:02:19;25.20;99.90
16825;DHT22;8529;48.108;-1.706;2023-06-22T13:04:46;25.10;99.90
16825;DHT22;8529;48.108;-1.706;2023-06-22T13:07:13;25.00;99.90
16825;DHT22;8529;48.108;-1.706;2023-06-22T13:09:40;25.00;99.90
16825;DHT22;8529;48.108;-1.706;2023-06-22T13:12:09;24.90;99.90
16825;DHT22;8529;48.108;-1.706;2023-06-22T13:14:36;25.00;99.90
16825;DHT22;8529;48.108;-1.706;2023-06-22T13:17:03;25.10;99.90
16825;DHT22;8529;48.108;-1.706;2023-06-22T13:19:30;25.20;99.90
16825;DHT22;8529;48.108;-1.706;2023-06-22T13:21:58;25.20;99.90
16825;DHT22;8529;48.108;-1.706;2023-06-22T13:24:25;25.10;99.90
16825;DHT22;8529;48.108;-1.706;2023-06-22T13:26:52;25.10;99.90
16825;DHT22;8529;48.108;-1.706;2023-06-22T13:29:20;25.20;99.90
16825;DHT22;8529;48.108;-1.706;2023-06-22T13:31:47;25.30;99.90
16825;DHT22;8529;48.108;-1.706;2023-06-22T13:34:14;25.30;99.90
16825;DHT22;8529;48.108;-1.706;2023-06-22T13:36:41;25.20;99.90
16825;DHT22;8529;48.108;-1.706;2023-06-22T13:39:08;25.20;99.90
16825;DHT22;8529;48.108;-1.706;2023-06-22T13:41:35;25.10;99.90
16825;DHT22;8529;48.108;-1.706;2023-06-22T13:44:02;25.10;99.90
16825;DHT22;8529;48.108;-1.706;2023-06-22T13:46:30;25.10;99.90
16825;DHT22;8529;48.108;-1.706;2023-06-22T13:48:57;25.10;99.90
16825;DHT22;8529;48.108;-1.706;2023-06-22T13:51:24;25.20;99.90
16825;DHT22;8529;48.108;-1.706;2023-06-22T13:53:51;25.30;99.80
16825;DHT22;8529;48.108;-1.706;2023-06-22T13:56:18;25.30;99.80
16825;DHT22;8529;48.108;-1.706;2023-06-22T13:58:44;25.20;99.90
16825;DHT22;8529;48.108;-1.706;2023-06-22T14:01:11;25.10;99.90
16825;DHT22;8529;48.108;-1.706;2023-06-22T14:03:40;25.00;99.90
16825;DHT22;8529;48.108;-1.706;2023-06-22T14:06:06;25.00;99.90
16825;DHT22;8529;48.108;-1.706;2023-06-22T14:08:36;25.00;99.10
16825;DHT22;8529;48.108;-1.706;2023-06-22T14:11:03;25.10;98.70
16825;DHT22;8529;48.108;-1.706;2023-06-22T14:13:30;25.10;98.80
16825;DHT22;8529;48.108;-1.706;2023-06-22T14:15:56;25.10;98.70
16825;DHT22;8529;48.108;-1.706;2023-06-22T14:18:23;25.10;98.50
16825;DHT22;8529;48.108;-1.706;2023-06-22T14:20:52;25.10;98.80
16825;DHT22;8529;48.108;-1.706;2023-06-22T14:23:18;25.10;98.50
16825;DHT22;8529;48.108;-1.706;2023-06-22T14:25:45;25.10;99.10
16825;DHT22;8529;48.108;-1.706;2023-06-22T14:28:12;25.00;99.30
16825;DHT22;8529;48.108;-1.706;2023-06-22T14:30:39;25.00;99.70
16825;DHT22;8529;48.108;-1.706;2023-06-22T14:33:06;24.90;99.90
16825;DHT22;8529;48.108;-1.706;2023-06-22T14:35:33;24.90;99.90
16825;DHT22;8529;48.108;-1.706;2023-06-22T14:38:01;24.90;99.80
16825;DHT22;8529;48.108;-1.706;2023-06-22T14:40:28;24.90;99.30
16825;DHT22;8529;48.108;-1.706;2023-06-22T14:42:55;25.00;98.50
16825;DHT22;8529;48.108;-1.706;2023-06-22T14:45:22;25.00;98.20
16825;DHT22;8529;48.108;-1.706;2023-06-22T14:47:49;25.00;98.90
16825;DHT22;8529;48.108;-1.706;2023-06-22T14:50:16;25.00;98.80
16825;DHT22;8529;48.108;-1.706;2023-06-22T14:52:43;24.90;98.40
16825;DHT22;8529;48.108;-1.706;2023-06-22T14:55:12;24.90;98.60
16825;DHT22;8529;48.108;-1.706;2023-06-22T14:57:38;24.90;98.90
16825;DHT22;8529;48.108;-1.706;2023-06-22T15:00:06;24.90;98.70
16825;DHT22;8529;48.108;-1.706;2023-06-22T15:02:34;24.90;98.40
16825;DHT22;8529;48.108;-1.706;2023-06-22T15:05:01;24.90;98.90
16825;DHT22;8529;48.108;-1.706;2023-06-22T15:07:28;24.90;99.30
16825;DHT22;8529;48.108;-1.706;2023-06-22T15:09:54;24.90;99.30
16825;DHT22;8529;48.108;-1.706;2023-06-22T15:12:23;24.90;98.70
16825;DHT22;8529;48.108;-1.706;2023-06-22T15:14:49;24.90;98.30
16825;DHT22;8529;48.108;-1.706;2023-06-22T15:17:16;24.90;98.50
16825;DHT22;8529;48.108;-1.706;2023-06-22T15:19:43;24.90;98.10
16825;DHT22;8529;48.108;-1.706;2023-06-22T15:22:10;24.90;97.80
16825;DHT22;8529;48.108;-1.706;2023-06-22T15:24:38;24.90;97.60
16825;DHT22;8529;48.108;-1.706;2023-06-22T15:27:05;24.90;97.60
16825;DHT22;8529;48.108;-1.706;2023-06-22T15:29:33;24.90;97.90
16825;DHT22;8529;48.108;-1.706;2023-06-22T15:32:00;24.90;97.50